createdAt,value
2022-12-12T00:00:36.162Z,-1.69
2022-12-12T00:03:07.806Z,-1.68
2022-12-12T00:05:39.434Z,-1.75
2022-12-12T00:08:11.398Z,-1.79
2022-12-12T00:10:43.247Z,-1.71
2022-12-12T00:13:14.768Z,-1.73
2022-12-12T00:15:46.778Z,-1.78
2022-12-12T00:18:18.368Z,-1.81
2022-12-12T00:20:50.272Z,-1.92
2022-12-12T00:23:21.785Z,-1.92
2022-12-12T00:25:53.729Z,-1.96
2022-12-12T00:28:25.221Z,-2.69
2022-12-12T00:30:57.165Z,-2.12
2022-12-12T00:33:28.668Z,-2.08
2022-12-12T00:36:00.517Z,-2.07
2022-12-12T00:38:32.021Z,-2.04
2022-12-12T00:41:03.848Z,-2.05
2022-12-12T00:43:35.359Z,-2.08
2022-12-12T00:46:07.233Z,-2.01
2022-12-12T00:48:38.750Z,-2.04
2022-12-12T00:51:10.728Z,-2.00
2022-12-12T00:53:42.224Z,-2.00
2022-12-12T00:56:14.013Z,-1.98
2022-12-12T00:58:45.494Z,-1.94
2022-12-12T01:01:17.497Z,-2.00
2022-12-12T01:03:49.009Z,-1.93
2022-12-12T01:06:20.822Z,-1.96
2022-12-12T01:08:52.326Z,-1.98
2022-12-12T01:11:24.239Z,-1.95
2022-12-12T01:13:55.810Z,-2.01
2022-12-12T01:16:28.132Z,-1.92
2022-12-12T01:18:59.649Z,-1.96
2022-12-12T01:21:31.507Z,-1.94
2022-12-12T01:24:03.025Z,-2.01
2022-12-12T01:26:34.872Z,-1.95
2022-12-12T01:29:06.378Z,-1.96
2022-12-12T01:31:38.423Z,-1.94
2022-12-12T01:34:09.944Z,-2.00
2022-12-12T01:36:41.738Z,-2.03
2022-12-12T01:39:13.262Z,-2.00
2022-12-12T01:41:45.339Z,-2.01
2022-12-12T01:44:16.868Z,-1.94
2022-12-12T01:46:48.744Z,-2.03
2022-12-12T01:49:20.349Z,-2.01
2022-12-12T01:51:52.178Z,-1.98
2022-12-12T01:54:23.729Z,-2.00
2022-12-12T01:56:55.254Z,-1.96
2022-12-12T01:59:26.889Z,-2.03
2022-12-12T02:01:58.960Z,-1.97
2022-12-12T02:04:30.566Z,-1.97
2022-12-12T02:07:02.438Z,-1.85
2022-12-12T02:09:33.942Z,-1.81
2022-12-12T02:12:05.809Z,-1.87
2022-12-12T02:14:37.300Z,-1.80
2022-12-12T02:17:09.117Z,-1.78
2022-12-12T02:19:40.659Z,-1.70
2022-12-12T02:22:12.525Z,-1.70
2022-12-12T02:24:44.747Z,-1.66
2022-12-12T02:27:16.751Z,-1.67
2022-12-12T02:29:48.253Z,-1.64
2022-12-12T02:32:20.126Z,-1.61
2022-12-12T02:34:51.623Z,-1.69
2022-12-12T02:37:23.410Z,-1.58
2022-12-12T02:39:54.908Z,-1.62
2022-12-12T02:42:26.722Z,-1.58
2022-12-12T02:44:58.215Z,-1.57
2022-12-12T02:47:30.270Z,-1.54
2022-12-12T02:50:01.844Z,-1.50
2022-12-12T02:52:33.818Z,-1.49
2022-12-12T02:55:05.308Z,-1.43
2022-12-12T02:57:37.165Z,-1.47
2022-12-12T03:00:08.713Z,-1.47
2022-12-12T03:02:40.253Z,-1.42
2022-12-12T03:05:30.832Z,-1.39
2022-12-12T03:08:02.724Z,-1.35
2022-12-12T03:10:34.361Z,-1.34
2022-12-12T03:13:06.383Z,-1.26
2022-12-12T03:15:37.876Z,-1.30
2022-12-12T03:18:09.798Z,-1.27
2022-12-12T03:20:41.290Z,-1.23
2022-12-12T03:23:13.135Z,-1.18
2022-12-12T03:25:44.661Z,-1.16
2022-12-12T03:28:16.574Z,-1.16
2022-12-12T03:30:48.123Z,-1.09
2022-12-12T03:33:19.970Z,-1.04
2022-12-12T03:35:51.493Z,-1.03
2022-12-12T03:38:23.338Z,-0.99
2022-12-12T03:40:55.214Z,-1.01
2022-12-12T03:43:27.265Z,-0.97
2022-12-12T03:45:58.776Z,-1.01
2022-12-12T03:48:30.863Z,-0.95
2022-12-12T03:51:02.374Z,-0.91
2022-12-12T03:53:34.174Z,-0.92
2022-12-12T03:56:05.685Z,-0.86
2022-12-12T03:58:37.553Z,-0.81
2022-12-12T04:01:09.104Z,-0.78
2022-12-12T04:03:40.995Z,-0.78
2022-12-12T04:06:27.565Z,-0.77
2022-12-12T04:09:18.268Z,-0.73
2022-12-12T04:12:08.658Z,-0.77
2022-12-12T04:14:41.798Z,-0.72
2022-12-12T04:17:13.339Z,-0.68
2022-12-12T04:20:03.766Z,-0.71
2022-12-12T04:22:54.153Z,-0.67
2022-12-12T04:25:26.230Z,-0.72
2022-12-12T04:27:57.741Z,-0.70
2022-12-12T04:30:29.841Z,-0.75
2022-12-12T04:33:01.739Z,-0.72
2022-12-12T04:35:33.261Z,-0.65
2022-12-12T04:38:05.264Z,-0.62
2022-12-12T04:40:36.769Z,-0.59
2022-12-12T04:43:08.273Z,-0.53
2022-12-12T04:45:39.879Z,-0.54
2022-12-12T04:48:11.724Z,-0.53
2022-12-12T04:50:43.333Z,-0.58
2022-12-12T04:53:18.611Z,-0.59
2022-12-12T04:55:50.357Z,-0.54
2022-12-12T04:58:22.230Z,-0.49
2022-12-12T05:00:53.768Z,-0.49
2022-12-12T05:03:25.673Z,-0.50
2022-12-12T05:05:57.169Z,-0.46
2022-12-12T05:08:29.072Z,-0.41
2022-12-12T05:11:00.668Z,-0.44
2022-12-12T05:13:32.212Z,-0.38
2022-12-12T05:16:03.710Z,-0.37
2022-12-12T05:18:35.537Z,-0.36
2022-12-12T05:21:07.046Z,-0.34
2022-12-12T05:23:39.074Z,-0.37
2022-12-12T05:26:10.642Z,-0.39
2022-12-12T05:28:42.154Z,-0.45
2022-12-12T05:31:14.015Z,-0.46
2022-12-12T05:33:46.102Z,-0.49
2022-12-12T05:36:17.637Z,-0.43
2022-12-12T05:38:49.521Z,-0.44
2022-12-12T05:41:21.080Z,-0.43
2022-12-12T05:43:52.924Z,-0.52
2022-12-12T05:46:24.861Z,-0.55
2022-12-12T05:48:57.150Z,-0.49
2022-12-12T05:51:28.703Z,-0.40
2022-12-12T05:54:00.597Z,-0.29
2022-12-12T05:56:32.101Z,-0.36
2022-12-12T05:59:03.955Z,-0.34
2022-12-12T06:01:35.449Z,-0.35
2022-12-12T06:04:07.381Z,-0.38
2022-12-12T06:06:38.922Z,-0.40
2022-12-12T06:09:10.763Z,-0.35
2022-12-12T06:11:42.259Z,-0.45
2022-12-12T06:14:14.085Z,-0.49
2022-12-12T06:16:45.588Z,-0.51
2022-12-12T06:19:17.446Z,-0.46
2022-12-12T06:21:48.990Z,-0.47
2022-12-12T06:24:20.489Z,-0.53
2022-12-12T06:26:52.009Z,-0.54
2022-12-12T06:29:23.923Z,-0.49
2022-12-12T06:31:55.405Z,-0.47
2022-12-12T06:34:27.189Z,-0.53
2022-12-12T06:36:58.682Z,-0.47
2022-12-12T06:39:30.466Z,-0.43
2022-12-12T06:42:01.983Z,-0.46
2022-12-12T06:44:33.975Z,-0.52
2022-12-12T06:47:05.499Z,-0.46
2022-12-12T06:49:37.467Z,-0.53
2022-12-12T06:52:08.976Z,-0.52
2022-12-12T06:54:40.824Z,-0.51
2022-12-12T06:57:12.354Z,-0.52
2022-12-12T06:59:44.161Z,-0.50
2022-12-12T07:02:15.843Z,-0.53
2022-12-12T07:04:47.739Z,-0.63
2022-12-12T07:07:19.252Z,-0.58
2022-12-12T07:09:50.769Z,-0.55
2022-12-12T07:12:22.262Z,-0.64
2022-12-12T07:14:54.254Z,-0.65
2022-12-12T07:17:25.797Z,-0.69
2022-12-12T07:19:57.717Z,-0.57
2022-12-12T07:22:29.238Z,-0.59
2022-12-12T07:25:01.108Z,-0.59
2022-12-12T07:27:32.623Z,-0.60
2022-12-12T07:30:04.537Z,-0.59
2022-12-12T07:32:36.024Z,-0.65
2022-12-12T07:35:07.551Z,-0.60
2022-12-12T07:37:39.030Z,-0.49
2022-12-12T07:40:11.015Z,-0.50
2022-12-12T07:42:42.547Z,-0.40
2022-12-12T07:45:18.222Z,-0.39
2022-12-12T07:47:50.248Z,-0.41
2022-12-12T07:50:22.092Z,-0.36
2022-12-12T07:52:53.582Z,-0.42
2022-12-12T07:55:25.393Z,-0.36
2022-12-12T07:57:56.928Z,-0.28
2022-12-12T08:00:28.685Z,-0.32
2022-12-12T08:03:00.243Z,-0.33
2022-12-12T08:05:31.816Z,-0.29
2022-12-12T08:08:03.751Z,-0.30
2022-12-12T08:10:35.311Z,-0.42
2022-12-12T08:13:07.208Z,-0.31
2022-12-12T08:15:38.830Z,-0.40
2022-12-12T08:18:10.412Z,-0.34
2022-12-12T08:20:41.919Z,-0.25
2022-12-12T08:23:13.830Z,-0.18
2022-12-12T08:25:45.369Z,-0.20
2022-12-12T08:28:17.206Z,-0.19
2022-12-12T08:30:48.702Z,-0.35
2022-12-12T08:33:20.497Z,-0.23
2022-12-12T08:35:52.001Z,-0.28
2022-12-12T08:38:23.819Z,-0.14
2022-12-12T08:40:55.681Z,-0.11
2022-12-12T08:43:27.493Z,-0.19
2022-12-12T08:45:58.985Z,-0.13
2022-12-12T08:48:33.917Z,-0.08
2022-12-12T08:51:05.392Z,-0.06
2022-12-12T08:53:37.347Z,0.03
2022-12-12T08:56:08.858Z,-0.06
2022-12-12T08:58:40.700Z,0.06
2022-12-12T09:01:12.264Z,-0.01
2022-12-12T09:03:44.124Z,-0.03
2022-12-12T09:06:15.624Z,0.11
2022-12-12T09:08:47.458Z,0.06
2022-12-12T09:11:18.975Z,0.19
2022-12-12T09:13:50.787Z,0.38
2022-12-12T09:16:23.426Z,0.31
2022-12-12T09:18:55.424Z,0.42
2022-12-12T09:21:26.939Z,0.15
2022-12-12T09:23:59.227Z,0.11
2022-12-12T09:26:30.728Z,0.11
2022-12-12T09:29:02.560Z,0.28
2022-12-12T09:31:34.104Z,0.30
2022-12-12T09:34:05.980Z,0.34
2022-12-12T09:36:37.499Z,0.33
2022-12-12T09:39:09.296Z,0.27
2022-12-12T09:41:40.871Z,0.25
2022-12-12T09:44:12.689Z,0.33
2022-12-12T09:46:44.181Z,0.12
2022-12-12T09:49:16.349Z,0.09
2022-12-12T09:51:47.842Z,0.20
2022-12-12T09:54:20.835Z,0.23
2022-12-12T09:56:52.339Z,0.34
2022-12-12T09:59:24.314Z,0.54
2022-12-12T10:01:55.904Z,0.91
2022-12-12T10:04:27.725Z,0.69
2022-12-12T10:06:59.272Z,0.61
2022-12-12T10:09:30.968Z,0.52
2022-12-12T10:12:07.940Z,0.52
2022-12-12T10:14:40.279Z,0.37
2022-12-12T10:17:11.812Z,0.38
2022-12-12T10:19:43.327Z,0.31
2022-12-12T10:22:15.129Z,0.33
2022-12-12T10:24:47.148Z,0.43
2022-12-12T10:27:18.654Z,0.46
2022-12-12T10:29:50.263Z,0.60
2022-12-12T10:32:21.762Z,0.73
2022-12-12T10:34:55.188Z,0.67
2022-12-12T10:37:26.859Z,0.86
2022-12-12T10:39:58.476Z,0.55
2022-12-12T10:42:30.018Z,0.84
2022-12-12T10:45:01.621Z,0.59
2022-12-12T10:47:33.121Z,0.28
2022-12-12T10:50:08.681Z,0.37
2022-12-12T10:52:43.021Z,0.68
2022-12-12T10:55:14.872Z,0.62
2022-12-12T11:00:27.710Z,0.69
2022-12-12T11:03:00.394Z,0.50
2022-12-12T11:05:32.435Z,0.38
2022-12-12T11:08:04.009Z,0.51
2022-12-12T11:10:35.899Z,0.83
2022-12-12T11:13:07.459Z,0.93
2022-12-12T11:15:39.927Z,0.81
2022-12-12T11:18:11.440Z,0.50
2022-12-12T11:20:43.147Z,0.47
2022-12-12T11:23:18.173Z,0.68
2022-12-12T11:25:51.419Z,0.73
2022-12-12T11:28:22.967Z,0.70
2022-12-12T11:30:54.489Z,0.48
2022-12-12T11:33:25.979Z,0.46
2022-12-12T11:35:58.002Z,0.65
2022-12-12T11:38:29.609Z,0.63
2022-12-12T11:41:01.580Z,0.73
2022-12-12T11:43:33.076Z,0.84
2022-12-12T11:46:04.751Z,0.75
2022-12-12T11:48:36.505Z,0.69
2022-12-12T11:51:08.336Z,0.89
2022-12-12T11:53:39.827Z,0.41
2022-12-12T11:56:12.345Z,0.70
2022-12-12T11:58:43.841Z,0.72
2022-12-12T12:01:15.848Z,0.34
2022-12-12T12:03:47.353Z,0.13
2022-12-12T12:06:19.393Z,0.13
2022-12-12T12:08:50.935Z,0.14
2022-12-12T12:11:22.779Z,-0.26
2022-12-12T12:13:54.330Z,-0.31
2022-12-12T12:16:26.237Z,-0.34
2022-12-12T12:18:57.758Z,-0.38
2022-12-12T12:21:29.667Z,-0.46
2022-12-12T12:24:01.187Z,-0.71
2022-12-12T12:26:33.041Z,-0.89
2022-12-12T12:29:04.580Z,-0.92
2022-12-12T12:31:36.288Z,-1.03
2022-12-12T12:34:07.807Z,-0.98
2022-12-12T12:36:39.335Z,-0.86
2022-12-12T12:39:10.824Z,-0.69
2022-12-12T12:41:42.743Z,-0.73
2022-12-12T12:44:14.224Z,-0.68
2022-12-12T12:46:46.221Z,-0.55
2022-12-12T12:49:17.720Z,-0.74
2022-12-12T12:51:50.676Z,-0.52
2022-12-12T12:54:22.314Z,-0.68
2022-12-12T12:56:54.190Z,-0.53
2022-12-12T12:59:25.708Z,-0.82
2022-12-12T13:01:57.765Z,-0.98
2022-12-12T13:04:29.275Z,-1.14
2022-12-12T13:07:01.128Z,-1.06
2022-12-12T13:09:32.982Z,-0.97
2022-12-12T13:12:04.884Z,-0.89
2022-12-12T13:14:36.387Z,-0.82
2022-12-12T13:17:08.258Z,-0.87
2022-12-12T13:19:40.520Z,-1.06
2022-12-12T13:22:12.437Z,-1.14
2022-12-12T13:24:43.931Z,-1.16
2022-12-12T13:27:15.445Z,-0.97
2022-12-12T13:29:46.956Z,-0.96
2022-12-12T13:32:18.900Z,-0.89
2022-12-12T13:34:50.603Z,-0.82
2022-12-12T13:37:22.678Z,-0.85
2022-12-12T13:39:54.171Z,-0.96
2022-12-12T13:42:26.105Z,-0.91
2022-12-12T13:44:57.625Z,-0.89
2022-12-12T13:47:29.568Z,-0.82
2022-12-12T13:50:01.100Z,-0.73
2022-12-12T13:52:33.081Z,-0.73
2022-12-12T13:55:04.569Z,-0.86
2022-12-12T13:57:36.318Z,-0.90
2022-12-12T14:00:08.084Z,-1.04
2022-12-12T14:02:41.862Z,-0.98
2022-12-12T14:05:13.516Z,-0.93
2022-12-12T14:07:45.215Z,-0.95
2022-12-12T14:10:16.819Z,-1.09
2022-12-12T14:12:48.685Z,-1.07
2022-12-12T14:15:20.712Z,-1.11
2022-12-12T14:17:52.540Z,-1.09
2022-12-12T14:20:24.042Z,-1.19
2022-12-12T14:22:55.844Z,-1.39
2022-12-12T14:25:27.363Z,-1.42
2022-12-12T14:27:59.221Z,-1.44
2022-12-12T14:30:30.729Z,-1.64
2022-12-12T14:33:02.465Z,-1.67
2022-12-12T14:35:33.988Z,-1.73
2022-12-12T14:38:06.008Z,-1.76
2022-12-12T14:40:37.529Z,-1.76
2022-12-12T14:43:21.231Z,-1.78
2022-12-12T14:45:54.171Z,-1.77
2022-12-12T14:48:25.730Z,-1.76
2022-12-12T14:50:57.286Z,-1.85
2022-12-12T14:53:28.784Z,-1.74
2022-12-12T14:56:00.605Z,-1.68
2022-12-12T14:58:32.213Z,-1.62
2022-12-12T15:01:03.731Z,-1.66
2022-12-12T15:03:35.383Z,-1.64
2022-12-12T15:06:07.356Z,-1.69
2022-12-12T15:08:38.848Z,-1.65
2022-12-12T15:11:10.376Z,-1.72
2022-12-12T15:13:41.871Z,-1.64
2022-12-12T15:16:13.778Z,-1.66
2022-12-12T15:18:45.387Z,-1.72
2022-12-12T15:21:17.342Z,-1.83
2022-12-12T15:23:48.852Z,-1.77
2022-12-12T15:26:20.359Z,-1.69
2022-12-12T15:28:52.886Z,-1.67
2022-12-12T15:31:24.803Z,-1.80
2022-12-12T15:33:56.323Z,-1.72
2022-12-12T15:36:27.859Z,-1.71
2022-12-12T15:38:59.351Z,-1.74
2022-12-12T15:41:31.405Z,-1.86
2022-12-12T15:44:02.947Z,-1.88
2022-12-12T15:46:34.909Z,-1.88
2022-12-12T15:49:06.457Z,-1.78
2022-12-12T15:51:38.286Z,-1.78
2022-12-12T15:54:09.775Z,-1.80
2022-12-12T15:56:41.645Z,-1.72
2022-12-12T15:59:13.155Z,-1.72
2022-12-12T16:01:45.059Z,-1.73
2022-12-12T16:04:17.671Z,-1.71
2022-12-12T16:06:49.292Z,-1.69
2022-12-12T16:09:20.835Z,-1.75
2022-12-12T16:11:52.681Z,-1.76
2022-12-12T16:14:24.436Z,-1.78
2022-12-12T16:16:56.831Z,-1.74
2022-12-12T16:19:28.420Z,-1.75
2022-12-12T16:22:00.240Z,-1.81
2022-12-12T16:24:31.843Z,-1.77
2022-12-12T16:27:03.953Z,-1.76
2022-12-12T16:29:35.455Z,-1.79
2022-12-12T16:32:07.994Z,-1.75
2022-12-12T16:34:39.546Z,-1.74
2022-12-12T16:37:11.399Z,-1.80
2022-12-12T16:39:42.917Z,-1.73
2022-12-12T16:42:14.683Z,-1.76
2022-12-12T16:44:46.587Z,-1.71
2022-12-12T16:47:18.642Z,-1.62
2022-12-12T16:49:50.135Z,-1.66
2022-12-12T16:52:22.083Z,-1.63
2022-12-12T16:54:54.127Z,-1.59
2022-12-12T16:57:26.008Z,-1.68
2022-12-12T16:59:57.520Z,-1.64
2022-12-12T17:02:29.502Z,-1.60
2022-12-12T17:05:01.006Z,-1.59
2022-12-12T17:07:32.828Z,-1.64
2022-12-12T17:10:04.689Z,-1.60
2022-12-12T17:12:36.515Z,-1.60
2022-12-12T17:15:08.040Z,-1.56
2022-12-12T17:17:39.962Z,-1.57
2022-12-12T17:20:12.209Z,-1.58
2022-12-12T17:22:44.232Z,-1.60
2022-12-12T17:25:15.772Z,-1.58
2022-12-12T17:27:47.578Z,-1.64
2022-12-12T17:30:19.060Z,-1.58
2022-12-12T17:35:40.435Z,-1.69
2022-12-12T17:38:16.122Z,-1.62
2022-12-12T17:40:48.959Z,-1.65
2022-12-12T17:43:20.817Z,-1.63
2022-12-12T17:45:52.359Z,-1.68
2022-12-12T17:48:24.240Z,-1.61
2022-12-12T17:50:55.732Z,-1.58
2022-12-12T17:53:27.616Z,-1.61
2022-12-12T17:56:01.267Z,-1.58
2022-12-12T17:58:39.652Z,-1.60
2022-12-12T18:01:11.267Z,-1.59
2022-12-12T18:03:43.219Z,-1.64
2022-12-12T18:06:14.747Z,-1.64
2022-12-12T18:08:46.606Z,-1.61
2022-12-12T18:11:18.094Z,-1.64
2022-12-12T18:13:49.928Z,-1.64
2022-12-12T18:16:21.801Z,-1.59
2022-12-12T18:18:53.757Z,-1.64
2022-12-12T18:24:17.129Z,-1.67
2022-12-12T18:26:49.041Z,-1.77
2022-12-12T18:29:20.589Z,-1.79
2022-12-12T18:31:52.672Z,-1.80
2022-12-12T18:34:24.218Z,-1.82
2022-12-12T18:36:55.717Z,-1.84
2022-12-12T18:39:27.300Z,-1.84
2022-12-12T18:41:59.323Z,-1.85
2022-12-12T18:44:30.821Z,-1.89
2022-12-12T18:47:02.744Z,-1.94
2022-12-12T18:49:34.221Z,-1.93
2022-12-12T18:52:05.830Z,-1.85
2022-12-12T18:54:37.332Z,-1.81
2022-12-12T18:57:09.328Z,-1.81
2022-12-12T18:59:41.334Z,-1.82
2022-12-12T19:02:13.253Z,-1.79
2022-12-12T19:04:46.822Z,-1.76
2022-12-12T19:07:18.898Z,-1.66
2022-12-12T19:09:51.555Z,-1.69
2022-12-12T19:12:23.067Z,-1.71
2022-12-12T19:17:46.374Z,-1.73
2022-12-12T19:20:17.939Z,-1.74
2022-12-12T19:22:49.866Z,-1.82
2022-12-12T19:25:21.920Z,-1.81
2022-12-12T19:27:53.804Z,-1.79
2022-12-12T19:30:27.943Z,-1.82
2022-12-12T19:32:59.522Z,-1.82
2022-12-12T19:35:31.461Z,-1.84
2022-12-12T19:38:02.990Z,-1.80
2022-12-12T19:40:34.854Z,-1.83
2022-12-12T19:43:06.565Z,-1.82
2022-12-12T19:45:38.460Z,-1.88
2022-12-12T19:48:11.328Z,-1.84
2022-12-12T19:50:43.124Z,-1.78
2022-12-12T19:53:15.485Z,-1.83
2022-12-12T19:55:47.812Z,-2.87
2022-12-12T19:58:19.310Z,-1.79
2022-12-12T20:00:50.812Z,-1.75
2022-12-12T20:03:22.310Z,-1.74
2022-12-12T20:05:54.126Z,-1.70
2022-12-12T20:08:25.687Z,-1.68
2022-12-12T20:10:57.538Z,-1.67
2022-12-12T20:13:29.015Z,-1.61
2022-12-12T20:16:00.941Z,-1.62
2022-12-12T20:18:32.498Z,-1.60
2022-12-12T20:21:04.410Z,-1.60
2022-12-12T20:23:35.899Z,-1.57
2022-12-12T20:26:07.463Z,-1.56
2022-12-12T20:28:38.959Z,-1.52
2022-12-12T20:31:10.888Z,-1.52
2022-12-12T20:33:42.453Z,-1.49
2022-12-12T20:36:14.546Z,-1.52
2022-12-12T20:38:46.067Z,-1.52
2022-12-12T20:41:17.604Z,-1.49
2022-12-12T20:43:49.149Z,-1.55
2022-12-12T20:46:21.073Z,-1.46
2022-12-12T20:48:53.083Z,-1.56
2022-12-12T20:51:54.762Z,-1.52
2022-12-12T20:54:24.053Z,-1.46
2022-12-12T20:56:56.163Z,-1.40
2022-12-12T20:59:27.712Z,-1.37
2022-12-12T21:01:59.695Z,-1.37
2022-12-12T21:04:32.178Z,-1.32
2022-12-12T21:07:04.081Z,-1.36
2022-12-12T21:09:35.662Z,-1.40
2022-12-12T21:12:07.210Z,-1.38
2022-12-12T21:14:38.696Z,-1.36
2022-12-12T21:17:10.216Z,-1.34
2022-12-12T21:19:42.102Z,-1.45
2022-12-12T21:22:13.956Z,-1.49
2022-12-12T21:24:45.444Z,-1.55
2022-12-12T21:27:17.241Z,-1.51
2022-12-12T21:29:48.732Z,-1.52
2022-12-12T21:32:20.521Z,-1.54
2022-12-12T21:34:52.009Z,-1.57
2022-12-12T21:37:23.926Z,-1.57
2022-12-12T21:39:55.422Z,-1.52
2022-12-12T21:42:27.200Z,-1.46
2022-12-12T21:44:58.730Z,-1.45
2022-12-12T21:47:30.210Z,-1.50
2022-12-12T21:50:01.696Z,-1.51
2022-12-12T21:52:33.550Z,-1.52
2022-12-12T21:55:05.071Z,-1.58
2022-12-12T21:57:37.083Z,-1.54
2022-12-12T22:00:08.571Z,-1.46
2022-12-12T22:02:40.536Z,-1.47
2022-12-12T22:05:12.408Z,-1.45
2022-12-12T22:07:44.535Z,-1.54
2022-12-12T22:10:16.019Z,-1.55
2022-12-12T22:12:57.168Z,-1.63
2022-12-12T22:15:29.126Z,-1.66
2022-12-12T22:18:00.938Z,-1.56
2022-12-12T22:20:35.487Z,-1.58
2022-12-12T22:23:08.102Z,-1.54
2022-12-12T22:25:39.591Z,-1.51
2022-12-12T22:28:11.419Z,-1.57
2022-12-12T22:30:43.006Z,-1.52
2022-12-12T22:33:14.500Z,-1.58
2022-12-12T22:35:45.988Z,-1.54
2022-12-12T22:38:17.854Z,-1.51
2022-12-12T22:40:49.368Z,-1.54
2022-12-12T22:43:21.306Z,-1.52
2022-12-12T22:45:52.821Z,-1.59
2022-12-12T22:48:24.666Z,-1.55
2022-12-12T22:50:56.162Z,-1.55
2022-12-12T22:53:28.049Z,-1.56
2022-12-12T22:55:59.535Z,-1.58
2022-12-12T22:58:33.263Z,-1.60
2022-12-12T23:01:04.754Z,-1.52
2022-12-12T23:03:36.574Z,-1.53
2022-12-12T23:06:08.084Z,-1.51
2022-12-12T23:08:39.967Z,-1.58
2022-12-12T23:11:11.482Z,-1.54
2022-12-12T23:13:44.582Z,-1.55
2022-12-12T23:16:16.232Z,-1.58
2022-12-12T23:18:48.268Z,-1.58
2022-12-12T23:21:19.767Z,-1.63
2022-12-12T23:23:51.741Z,-1.56
2022-12-12T23:26:23.256Z,-1.54
2022-12-12T23:28:55.100Z,-1.53
2022-12-12T23:31:26.679Z,-1.58
2022-12-12T23:33:58.185Z,-1.55
2022-12-12T23:36:29.672Z,-1.66
2022-12-12T23:39:01.570Z,-1.65
2022-12-12T23:41:33.084Z,-1.60
2022-12-12T23:44:04.927Z,-1.58
2022-12-12T23:46:37.184Z,-1.52
2022-12-12T23:49:08.984Z,-1.55
2022-12-12T23:51:40.481Z,-1.60
2022-12-12T23:54:12.458Z,-1.60
2022-12-12T23:56:44.783Z,-1.55
2022-12-12T23:59:18.283Z,-1.48
